Time;durP1;ratioP1;P1;durP2;ratioP2;P2;SDS_P1;SDS_P2;PMS_P1;PMS_P2;Temp;Humidity;BMP_temperature;BMP_pressure;BME280_temperature;BME280_humidity;BME280_pressure;Samples;Min_cycle;Max_cycle;Signal;HPM_P1;HPM_P2
2024/02/05 00:01:02;;;;;;;1.10;0.80;;;10.00;99.90;;;-141.84;100.00;119224.81;5002626;28;20256;-55
2024/02/05 00:03:32;;;;;;;1.03;0.60;;;10.00;99.90;;;-141.84;100.00;119224.81;5003429;28;20227;-55
2024/02/05 00:06:00;;;;;;;0.77;0.50;;;10.00;99.90;;;-141.84;100.00;119224.81;4997544;28;20670;-55
2024/02/05 00:08:28;;;;;;;0.60;0.60;;;10.10;99.90;;;-141.84;100.00;119224.81;4999848;28;20227;-56
2024/02/05 00:10:56;;;;;;;0.50;0.50;;;10.00;99.90;;;-141.84;100.00;119224.81;5002475;28;20234;-56
2024/02/05 00:13:25;;;;;;;0.40;0.40;;;10.10;99.90;;;-141.84;100.00;119224.81;5003376;28;20250;-55
2024/02/05 00:15:53;;;;;;;0.60;0.60;;;10.10;99.90;;;-141.84;100.00;119224.81;5003037;28;20257;-56
2024/02/05 00:18:21;;;;;;;0.83;0.67;;;10.10;99.90;;;-141.84;100.00;119224.81;4989483;28;20738;-53
2024/02/05 00:20:51;;;;;;;0.87;0.53;;;10.10;99.90;;;-141.84;100.00;119224.81;4997947;28;20313;-56
2024/02/05 00:23:19;;;;;;;0.63;0.60;;;10.10;99.90;;;-141.84;100.00;119224.81;5000044;28;20254;-54
2024/02/05 00:25:47;;;;;;;0.60;0.60;;;10.10;99.90;;;-141.84;100.00;119224.81;4998512;28;20250;-53
2024/02/05 00:28:15;;;;;;;0.50;0.50;;;10.00;99.90;;;-141.84;100.00;119224.81;4998034;28;20270;-57
2024/02/05 00:30:44;;;;;;;0.53;0.50;;;10.10;99.90;;;-141.84;100.00;119224.81;5005918;28;20244;-55
2024/02/05 00:33:12;;;;;;;0.53;0.53;;;10.10;99.90;;;-141.84;100.00;119224.81;4997839;28;20247;-51
2024/02/05 00:35:41;;;;;;;0.50;0.50;;;10.10;99.90;;;-141.84;100.00;119224.81;5004471;28;20292;-53
2024/02/05 00:38:11;;;;;;;0.60;0.60;;;10.10;99.90;;;-141.84;100.00;119224.81;4999296;28;20223;-54
2024/02/05 00:40:41;;;;;;;0.93;0.50;;;10.10;99.90;;;-141.84;100.00;119224.81;4999954;28;20573;-52
2024/02/05 00:43:09;;;;;;;0.50;0.50;;;10.10;99.90;;;-141.84;100.00;119224.81;5001997;28;20238;-56
2024/02/05 00:45:38;;;;;;;0.50;0.50;;;10.00;99.90;;;-141.84;100.00;119224.81;5004057;28;20223;-55
2024/02/05 00:48:07;;;;;;;0.60;0.60;;;10.10;99.90;;;-141.84;100.00;119224.81;4999349;28;20250;-54
2024/02/05 00:50:36;;;;;;;0.90;0.60;;;10.00;99.90;;;-141.84;100.00;119224.81;5001892;28;20249;-55
2024/02/05 00:53:05;;;;;;;0.60;0.60;;;10.00;99.90;;;-141.84;100.00;119224.81;4994323;28;20203;-55
2024/02/05 00:55:35;;;;;;;0.50;0.50;;;10.00;99.90;;;-141.84;100.00;119224.81;5002563;28;20249;-55
2024/02/05 00:58:03;;;;;;;0.50;0.50;;;10.00;99.90;;;-141.84;100.00;119224.81;5001322;28;20223;-53
2024/02/05 01:00:32;;;;;;;1.90;0.50;;;10.00;99.90;;;-141.84;100.00;119224.81;5001679;28;20767;-55
2024/02/05 01:03:00;;;;;;;0.67;0.40;;;10.00;99.90;;;-141.84;100.00;119224.81;5001747;28;20317;-50
2024/02/05 01:05:28;;;;;;;0.60;0.50;;;10.00;99.90;;;-141.84;100.00;119224.81;5002523;28;20247;-55
2024/02/05 01:07:57;;;;;;;0.50;0.50;;;10.00;99.90;;;-141.84;100.00;119224.81;5001430;28;20250;-56
2024/02/05 01:10:25;;;;;;;0.43;0.43;;;10.10;99.90;;;-141.84;100.00;119224.81;5001877;28;20211;-52
2024/02/05 01:12:55;;;;;;;0.50;0.50;;;10.00;99.90;;;-141.84;100.00;119224.81;5002512;28;20314;-55
2024/02/05 01:15:23;;;;;;;0.40;0.40;;;10.10;99.90;;;-141.84;100.00;119224.81;4999327;28;20774;-56
2024/02/05 01:17:51;;;;;;;0.50;0.50;;;10.10;99.90;;;-141.84;100.00;119224.81;5003104;28;20263;-54
2024/02/05 01:20:20;;;;;;;0.50;0.50;;;10.10;99.90;;;-141.84;100.00;119224.81;5001619;28;20309;-55
2024/02/05 01:22:48;;;;;;;0.60;0.60;;;10.10;99.90;;;-141.84;100.00;119224.81;5001440;28;20199;-54
2024/02/05 01:25:17;;;;;;;0.70;0.50;;;10.00;99.90;;;-141.84;100.00;119224.81;5001758;28;20203;-54
2024/02/05 01:27:45;;;;;;;0.50;0.50;;;10.00;99.90;;;-141.84;100.00;119224.81;5000936;28;20235;-53
2024/02/05 01:30:15;;;;;;;0.60;0.60;;;10.00;99.90;;;-141.84;100.00;119224.81;5001150;28;20238;-55
2024/02/05 01:32:43;;;;;;;0.60;0.60;;;10.00;99.90;;;-141.84;100.00;119224.81;5001084;28;20219;-56
2024/02/05 01:35:12;;;;;;;1.53;0.60;;;10.00;99.90;;;-141.84;100.00;119224.81;5003347;28;20219;-54
2024/02/05 01:37:40;;;;;;;0.60;0.60;;;10.00;99.90;;;-141.84;100.00;119224.81;5003675;28;20225;-54
2024/02/05 01:40:10;;;;;;;0.50;0.50;;;9.90;99.90;;;-141.84;100.00;119224.81;5000754;28;20348;-55
2024/02/05 01:42:41;;;;;;;0.60;0.60;;;10.00;99.90;;;-141.84;100.00;119224.81;5002953;28;20218;-53
2024/02/05 01:45:10;;;;;;;1.70;0.70;;;10.00;99.90;;;-141.84;100.00;119224.81;5003288;28;20219;-51
2024/02/05 01:47:42;;;;;;;0.60;0.60;;;10.00;99.90;;;-141.84;100.00;119224.81;5001099;28;20223;-54
2024/02/05 01:50:13;;;;;;;0.90;0.80;;;10.00;99.90;;;-141.84;100.00;119224.81;4999748;28;20233;-54
2024/02/05 01:52:45;;;;;;;0.60;0.60;;;9.90;99.90;;;-141.84;100.00;119224.81;5001183;28;20671;-56
2024/02/05 01:55:16;;;;;;;0.67;0.60;;;10.00;99.90;;;-141.84;100.00;119224.81;4993696;28;20314;-55
2024/02/05 01:57:46;;;;;;;0.60;0.60;;;10.00;99.90;;;-141.84;100.00;119224.81;5000693;28;20235;-54
2024/02/05 02:00:16;;;;;;;0.43;0.43;;;10.00;99.90;;;-141.84;100.00;119224.81;5002053;28;20229;-56
2024/02/05 02:02:46;;;;;;;0.70;0.70;;;10.00;99.90;;;-141.84;100.00;119224.81;5003320;28;20311;-56
2024/02/05 02:05:15;;;;;;;1.23;0.60;;;10.00;99.90;;;-141.84;100.00;119224.81;5003084;28;20289;-52
2024/02/05 02:07:44;;;;;;;0.73;0.73;;;9.90;99.90;;;-141.84;100.00;119224.81;4992728;28;20206;-54
2024/02/05 02:10:12;;;;;;;0.90;0.73;;;9.90;99.90;;;-141.84;100.00;119224.81;4998472;28;20220;-53
2024/02/05 02:12:41;;;;;;;0.60;0.60;;;9.90;99.90;;;-141.84;100.00;119224.81;4992469;28;20231;-54
2024/02/05 02:15:11;;;;;;;1.47;0.70;;;9.90;99.90;;;-141.84;100.00;119224.81;5004244;28;20255;-53
2024/02/05 02:17:48;;;;;;;0.70;0.70;;;9.90;99.90;;;-141.84;100.00;119224.81;5005505;28;20278;-55
2024/02/05 02:20:21;;;;;;;1.43;0.70;;;9.90;99.90;;;-141.84;100.00;119224.81;5003766;28;20226;-55
2024/02/05 02:22:57;;;;;;;0.80;0.50;;;9.80;99.90;;;-141.84;100.00;119224.81;5000532;28;20645;-55
2024/02/05 02:25:27;;;;;;;1.83;0.60;;;9.80;99.90;;;-141.84;100.00;119224.81;5008919;28;20226;-54
2024/02/05 02:27:56;;;;;;;0.63;0.63;;;9.90;99.90;;;-141.84;100.00;119224.81;5000333;28;20227;-56
2024/02/05 02:30:26;;;;;;;0.77;0.70;;;9.80;99.90;;;-141.84;100.00;119224.81;4999905;28;20242;-54
2024/02/05 02:33:10;;;;;;;0.80;0.60;;;9.80;99.90;;;-141.84;100.00;119224.81;5000518;28;20226;-52
2024/02/05 02:35:44;;;;;;;0.90;0.57;;;9.80;99.90;;;-141.84;100.00;119224.81;5000103;28;20293;-54
2024/02/05 02:38:23;;;;;;;0.60;0.60;;;9.80;99.90;;;-141.84;100.00;119224.81;5002449;28;20650;-54
2024/02/05 02:41:03;;;;;;;0.90;0.60;;;10.10;99.90;;;-141.84;100.00;119224.81;5002510;28;20241;-54
2024/02/05 02:43:38;;;;;;;1.77;0.80;;;9.70;99.90;;;-141.84;100.00;119224.81;4992683;28;20191;-56
2024/02/05 02:46:08;;;;;;;0.90;0.80;;;9.70;99.90;;;-141.84;100.00;119224.81;4999351;28;20318;-53
2024/02/05 02:48:36;;;;;;;0.70;0.70;;;9.70;99.90;;;-141.84;100.00;119224.81;5000854;28;20223;-53
2024/02/05 02:51:08;;;;;;;2.13;1.40;;;9.70;99.90;;;-141.84;100.00;119224.81;5001940;28;20225;-54
2024/02/05 02:53:36;;;;;;;1.50;0.90;;;9.70;99.90;;;-141.84;100.00;119224.81;5001944;28;20226;-56
2024/02/05 02:56:07;;;;;;;1.57;0.80;;;9.70;99.90;;;-141.84;100.00;119224.81;4999296;28;20230;-52
2024/02/05 02:58:35;;;;;;;1.47;0.70;;;9.70;99.90;;;-141.84;100.00;119224.81;5005965;28;20234;-55
2024/02/05 03:01:04;;;;;;;1.10;1.00;;;9.70;99.90;;;-141.84;100.00;119224.81;5001328;28;20223;-54
2024/02/05 03:03:33;;;;;;;1.53;0.80;;;9.70;99.90;;;-141.84;100.00;119224.81;5000395;28;20712;-54
2024/02/05 03:06:02;;;;;;;0.70;0.70;;;9.60;99.90;;;-141.84;100.00;119224.81;5005362;28;20227;-56
2024/02/05 03:08:30;;;;;;;0.63;0.63;;;9.60;99.90;;;-141.84;100.00;119224.81;4994595;28;20227;-53
2024/02/05 03:10:58;;;;;;;3.10;1.03;;;9.70;99.90;;;-141.84;100.00;119224.81;5000665;28;20302;-54
2024/02/05 03:13:28;;;;;;;2.03;0.80;;;9.70;99.90;;;-141.84;100.00;119224.81;5002726;28;20195;-55
2024/02/05 03:15:56;;;;;;;0.80;0.80;;;9.70;99.90;;;-141.84;100.00;119224.81;5001996;28;20233;-55
2024/02/05 03:18:24;;;;;;;0.90;0.70;;;9.70;99.90;;;-141.84;100.00;119224.81;5004213;28;20223;-57
2024/02/05 03:20:53;;;;;;;1.00;0.90;;;9.70;99.90;;;-141.84;100.00;119224.81;5000296;28;20223;-52
2024/02/05 03:23:21;;;;;;;0.90;0.83;;;9.70;99.90;;;-141.84;100.00;119224.81;5003208;28;20322;-56
2024/02/05 03:25:50;;;;;;;0.93;0.70;;;9.70;99.90;;;-141.84;100.00;119224.81;5004735;28;20198;-55
2024/02/05 03:28:18;;;;;;;0.70;0.70;;;9.70;99.90;;;-141.84;100.00;119224.81;5005993;28;20262;-55
2024/02/05 03:30:48;;;;;;;2.53;0.63;;;9.70;99.90;;;-141.84;100.00;119224.81;5003886;28;20227;-54
2024/02/05 03:33:16;;;;;;;0.80;0.80;;;9.70;99.90;;;-141.84;100.00;119224.81;5002753;28;20598;-56
2024/02/05 03:35:46;;;;;;;1.10;0.80;;;9.70;99.90;;;-141.84;100.00;119224.81;4991582;28;20241;-53
2024/02/05 03:38:15;;;;;;;1.00;0.90;;;9.70;99.90;;;-141.84;100.00;119224.81;4998379;28;20231;-55
2024/02/05 03:40:43;;;;;;;0.90;0.90;;;9.70;99.90;;;-141.84;100.00;119224.81;4998698;28;20707;-56
2024/02/05 03:43:11;;;;;;;0.80;0.80;;;9.70;99.90;;;-141.84;100.00;119224.81;4999556;28;20318;-54
2024/02/05 03:45:40;;;;;;;0.83;0.70;;;9.70;99.90;;;-141.84;100.00;119224.81;4998218;28;20219;-56
2024/02/05 03:48:10;;;;;;;1.10;1.00;;;9.80;99.90;;;-141.84;100.00;119224.81;4997569;28;20231;-54
2024/02/05 03:50:38;;;;;;;1.53;0.73;;;9.70;99.90;;;-141.84;100.00;119224.81;5000118;28;20234;-55
2024/02/05 03:53:06;;;;;;;1.17;0.77;;;9.70;99.90;;;-141.84;100.00;119224.81;5000829;28;20339;-55
2024/02/05 03:55:34;;;;;;;1.47;0.80;;;9.70;99.90;;;-141.84;100.00;119224.81;4994264;28;20227;-55
2024/02/05 03:58:05;;;;;;;1.10;1.00;;;9.80;99.90;;;-141.84;100.00;119224.81;4999921;28;20230;-54
2024/02/05 04:00:36;;;;;;;0.90;0.90;;;9.70;99.90;;;-141.84;100.00;119224.81;5000411;28;20268;-53
2024/02/05 04:03:06;;;;;;;0.80;0.80;;;9.70;99.90;;;-141.84;100.00;119224.81;5000171;28;20229;-56
2024/02/05 04:05:35;;;;;;;1.77;0.80;;;9.70;99.90;;;-141.84;100.00;119224.81;4995784;28;20251;-54
2024/02/05 04:08:05;;;;;;;0.70;0.70;;;9.80;99.90;;;-141.84;100.00;119224.81;4997130;28;20200;-55
2024/02/05 04:10:33;;;;;;;1.30;0.90;;;9.80;99.90;;;-141.84;100.00;119224.81;4999141;28;20654;-57
2024/02/05 04:13:01;;;;;;;1.63;0.83;;;9.70;99.90;;;-141.84;100.00;119224.81;5000252;28;20780;-55
2024/02/05 04:15:29;;;;;;;1.70;0.93;;;9.80;99.90;;;-141.84;100.00;119224.81;5000283;28;20233;-54
2024/02/05 04:18:00;;;;;;;1.50;0.70;;;9.80;99.90;;;-141.84;100.00;119224.81;4997507;28;20249;-56
2024/02/05 04:20:28;;;;;;;0.80;0.80;;;9.80;99.90;;;-141.84;100.00;119224.81;4997634;28;20720;-57
2024/02/05 04:22:58;;;;;;;1.20;0.70;;;9.80;99.90;;;-141.84;100.00;119224.81;4998200;28;20202;-58
2024/02/05 04:25:26;;;;;;;1.37;0.77;;;9.80;99.90;;;-141.84;100.00;119224.81;5000489;28;20223;-57
2024/02/05 04:27:54;;;;;;;1.47;0.90;;;9.90;99.90;;;-141.84;100.00;119224.81;4999962;28;20245;-56
2024/02/05 04:30:29;;;;;;;0.90;0.80;;;9.90;99.90;;;-141.84;100.00;119224.81;5000581;28;20691;-55
2024/02/05 04:33:00;;;;;;;1.17;0.90;;;9.90;99.90;;;-141.84;100.00;119224.81;4997564;28;20317;-57
2024/02/05 04:35:28;;;;;;;2.70;1.10;;;9.90;99.90;;;-141.84;100.00;119224.81;4997978;28;20227;-57
2024/02/05 04:37:58;;;;;;;1.10;0.90;;;9.90;99.90;;;-141.84;100.00;119224.81;4998925;28;20199;-54
2024/02/05 04:40:26;;;;;;;1.10;1.00;;;9.90;99.90;;;-141.84;100.00;119224.81;4996259;28;20310;-56
2024/02/05 04:42:55;;;;;;;0.90;0.80;;;10.00;99.90;;;-141.84;100.00;119224.81;4997680;28;20224;-56
2024/02/05 04:45:23;;;;;;;0.93;0.93;;;10.00;99.90;;;-141.84;100.00;119224.81;4999576;28;20664;-55
2024/02/05 04:47:51;;;;;;;1.80;0.90;;;10.00;99.90;;;-141.84;100.00;119224.81;4999921;28;20230;-56
2024/02/05 04:50:20;;;;;;;1.87;0.90;;;9.90;99.90;;;-141.84;100.00;119224.81;5000673;28;20233;-55
2024/02/05 04:52:48;;;;;;;1.43;1.10;;;9.90;99.90;;;-141.84;100.00;119224.81;4997895;28;20667;-59
2024/02/05 04:55:18;;;;;;;2.50;0.93;;;9.90;99.90;;;-141.84;100.00;119224.81;4998463;28;20234;-56
2024/02/05 04:57:48;;;;;;;2.47;1.10;;;10.00;99.90;;;-141.84;100.00;119224.81;4997725;28;20306;-57
2024/02/05 05:00:20;;;;;;;0.70;0.70;;;10.00;99.90;;;-141.84;100.00;119224.81;5000354;28;20599;-58
2024/02/05 05:02:49;;;;;;;0.93;0.83;;;10.00;99.90;;;-141.84;100.00;119224.81;4997105;28;20382;-56
2024/02/05 05:05:17;;;;;;;1.27;0.90;;;10.00;99.90;;;-141.84;100.00;119224.81;4999238;28;20788;-51
2024/02/05 05:07:46;;;;;;;0.70;0.70;;;10.00;99.90;;;-141.84;100.00;119224.81;5001836;28;20202;-57
2024/02/05 05:10:14;;;;;;;1.03;0.80;;;10.00;99.90;;;-141.84;100.00;119224.81;5005973;28;20215;-54
2024/02/05 05:12:44;;;;;;;1.10;1.00;;;10.10;99.90;;;-141.84;100.00;119224.81;4998998;28;20746;-53
2024/02/05 05:15:16;;;;;;;1.00;1.00;;;10.10;99.90;;;-141.84;100.00;119224.81;4999977;28;20726;-52
2024/02/05 05:17:45;;;;;;;1.27;1.03;;;10.10;99.90;;;-141.84;100.00;119224.81;4999898;28;20227;-54
2024/02/05 05:20:14;;;;;;;1.20;1.10;;;10.00;99.90;;;-141.84;100.00;119224.81;4994047;28;20238;-57
2024/02/05 05:22:42;;;;;;;2.10;1.10;;;10.00;99.90;;;-141.84;100.00;119224.81;4998241;28;20278;-56
2024/02/05 05:25:14;;;;;;;2.27;1.50;;;10.00;99.90;;;-141.84;100.00;119224.81;4997327;28;20531;-54
2024/02/05 05:27:44;;;;;;;1.93;1.70;;;10.10;99.90;;;-141.84;100.00;119224.81;4997028;28;20231;-55
2024/02/05 05:30:13;;;;;;;1.80;1.57;;;10.10;99.90;;;-141.84;100.00;119224.81;5000073;28;20223;-56
2024/02/05 05:32:41;;;;;;;1.30;1.20;;;10.10;99.90;;;-141.84;100.00;119224.81;5002447;28;20746;-56
2024/02/05 05:35:10;;;;;;;1.33;1.23;;;10.10;99.90;;;-141.84;100.00;119224.81;5003100;28;20237;-55
2024/02/05 05:37:41;;;;;;;1.73;1.50;;;10.10;99.90;;;-141.84;100.00;119224.81;5004383;28;20273;-58
2024/02/05 05:40:11;;;;;;;1.80;1.50;;;10.00;99.90;;;-141.84;100.00;119224.81;5003023;28;20310;-57
2024/02/05 05:42:39;;;;;;;1.67;1.57;;;10.00;99.90;;;-141.84;100.00;119224.81;5003032;28;20218;-56
2024/02/05 05:45:09;;;;;;;2.77;1.87;;;9.90;99.90;;;-141.84;100.00;119224.81;5002607;28;20227;-57
2024/02/05 05:47:39;;;;;;;2.17;1.50;;;10.00;99.90;;;-141.84;100.00;119224.81;4996019;28;20227;-57
2024/02/05 05:50:10;;;;;;;2.47;1.60;;;9.90;99.90;;;-141.84;100.00;119224.81;5003151;28;20206;-55
2024/02/05 05:52:38;;;;;;;2.70;1.67;;;9.90;99.90;;;-141.84;100.00;119224.81;5002211;28;20191;-57
2024/02/05 05:55:09;;;;;;;1.60;1.50;;;9.90;99.90;;;-141.84;100.00;119224.81;5000342;28;20235;-56
2024/02/05 05:57:37;;;;;;;2.10;1.47;;;9.90;99.90;;;-141.84;100.00;119224.81;4998074;28;20220;-58
2024/02/05 06:00:08;;;;;;;2.90;1.43;;;9.90;99.90;;;-141.84;100.00;119224.81;5002579;28;20235;-54
2024/02/05 06:02:38;;;;;;;2.10;1.50;;;9.90;99.90;;;-141.84;100.00;119224.81;5003162;28;20305;-57
2024/02/05 06:05:08;;;;;;;1.60;1.50;;;10.00;99.90;;;-141.84;100.00;119224.81;5002208;28;20739;-55
2024/02/05 06:07:39;;;;;;;5.80;3.07;;;10.00;99.90;;;-141.84;100.00;119224.81;5002977;28;20645;-55
2024/02/05 06:10:09;;;;;;;2.00;1.80;;;10.00;99.90;;;-141.84;100.00;119224.81;5000158;28;20227;-54
2024/02/05 06:12:38;;;;;;;1.43;1.30;;;10.00;99.90;;;-141.84;100.00;119224.81;5001401;28;20234;-55
2024/02/05 06:15:09;;;;;;;1.57;1.40;;;9.90;99.90;;;-141.84;100.00;119224.81;5002667;28;20215;-56
2024/02/05 06:17:39;;;;;;;2.40;1.30;;;10.00;99.90;;;-141.84;100.00;119224.81;4995031;28;20290;-55
2024/02/05 06:20:09;;;;;;;2.17;1.47;;;10.00;99.90;;;-141.84;100.00;119224.81;4995978;28;21434;-54
2024/02/05 06:22:42;;;;;;;2.80;1.50;;;10.00;99.90;;;-141.84;100.00;119224.81;5000713;28;20269;-53
2024/02/05 06:25:10;;;;;;;4.70;1.80;;;10.00;99.90;;;-141.84;100.00;119224.81;5000772;28;20310;-52
2024/02/05 06:27:39;;;;;;;2.30;1.60;;;10.10;99.90;;;-141.84;100.00;119224.81;5002159;28;20326;-57
2024/02/05 06:30:09;;;;;;;1.80;1.70;;;10.10;99.90;;;-141.84;100.00;119224.81;5002168;28;20273;-56
2024/02/05 06:32:38;;;;;;;2.10;1.73;;;10.10;99.90;;;-141.84;100.00;119224.81;5000836;28;20257;-55
2024/02/05 06:35:08;;;;;;;1.60;1.50;;;10.00;99.90;;;-141.84;100.00;119224.81;4999991;28;20202;-55
2024/02/05 06:37:36;;;;;;;2.40;1.80;;;10.10;99.90;;;-141.84;100.00;119224.81;5000596;28;20453;-53
2024/02/05 06:40:06;;;;;;;3.67;2.13;;;10.20;99.90;;;-141.84;100.00;119224.81;4998829;28;20799;-55
2024/02/05 06:42:35;;;;;;;2.13;1.67;;;10.10;99.90;;;-141.84;100.00;119224.81;4999167;28;20608;-51
2024/02/05 06:45:04;;;;;;;3.60;2.20;;;10.10;99.90;;;-141.84;100.00;119224.81;4999480;28;20315;-52
2024/02/05 06:47:32;;;;;;;4.10;1.97;;;10.10;99.90;;;-141.84;100.00;119224.81;5002397;28;20215;-54
2024/02/05 06:50:02;;;;;;;3.13;2.20;;;10.20;99.90;;;-141.84;100.00;119224.81;5001609;28;20214;-53
2024/02/05 06:52:31;;;;;;;2.83;2.50;;;10.10;99.90;;;-141.84;100.00;119224.81;5000975;28;20214;-54
2024/02/05 06:55:02;;;;;;;3.47;2.47;;;10.10;99.90;;;-141.84;100.00;119224.81;5000744;28;20764;-55
2024/02/05 06:57:30;;;;;;;3.43;2.50;;;10.20;99.90;;;-141.84;100.00;119224.81;5001787;28;20249;-55
2024/02/05 06:59:59;;;;;;;3.60;2.70;;;10.20;99.90;;;-141.84;100.00;119224.81;4999908;28;20313;-56
2024/02/05 07:02:27;;;;;;;4.87;2.77;;;10.20;99.90;;;-141.84;100.00;119224.81;4999971;28;20242;-56
2024/02/05 07:04:56;;;;;;;3.20;2.77;;;10.20;99.90;;;-141.84;100.00;119224.81;4999137;28;20199;-54
2024/02/05 07:07:26;;;;;;;5.63;2.70;;;10.30;99.90;;;-141.84;100.00;119224.81;4999898;28;20199;-55
2024/02/05 07:09:56;;;;;;;4.10;2.93;;;10.30;99.90;;;-141.84;100.00;119224.81;4998637;28;20224;-53
2024/02/05 07:12:24;;;;;;;3.80;2.80;;;10.30;99.90;;;-141.84;100.00;119224.81;4998984;28;20231;-56
2024/02/05 07:14:53;;;;;;;3.83;2.70;;;10.30;99.90;;;-141.84;100.00;119224.81;5001688;28;20229;-54
2024/02/05 07:17:32;;;;;;;4.37;2.90;;;10.30;99.90;;;-141.84;100.00;119224.81;5001296;28;20789;-55
2024/02/05 07:20:02;;;;;;;4.87;3.50;;;10.30;99.90;;;-141.84;100.00;119224.81;5004377;28;20198;-55
2024/02/05 07:22:32;;;;;;;6.33;3.30;;;10.30;99.90;;;-141.84;100.00;119224.81;4999571;28;20223;-57
2024/02/05 07:25:00;;;;;;;6.10;3.43;;;10.30;99.90;;;-141.84;100.00;119224.81;4999192;28;20325;-56
2024/02/05 07:27:29;;;;;;;6.60;3.37;;;10.30;99.90;;;-141.84;100.00;119224.81;4990722;28;20231;-55
2024/02/05 07:29:57;;;;;;;6.20;3.27;;;10.40;99.90;;;-141.84;100.00;119224.81;4998905;28;20231;-56
2024/02/05 07:32:25;;;;;;;6.87;3.73;;;10.30;99.90;;;-141.84;100.00;119222.75;4999070;28;20229;-55
2024/02/05 07:34:54;;;;;;;6.97;3.50;;;10.40;99.90;;;-141.84;100.00;118956.03;5001072;28;20681;-55
2024/02/05 07:37:22;;;;;;;6.23;3.73;;;10.40;99.90;;;-141.84;100.00;118422.72;5001879;28;20203;-55
2024/02/05 07:39:52;;;;;;;8.63;3.93;;;10.40;99.90;;;-141.84;100.00;118156.06;4999827;28;20226;-52
2024/02/05 07:42:20;;;;;;;7.00;3.40;;;10.40;99.90;;;-141.84;100.00;117622.84;4998276;28;20266;-54
2024/02/05 07:44:49;;;;;;;6.60;3.63;;;10.50;99.90;;;-141.84;100.00;117889.44;4998372;28;20259;-54
2024/02/05 07:47:17;;;;;;;6.47;4.00;;;10.50;99.90;;;-141.84;100.00;118156.06;5000065;28;20326;-56
2024/02/05 07:49:45;;;;;;;5.30;3.93;;;10.50;99.90;;;-141.84;100.00;117356.25;5000376;28;20628;-53
2024/02/05 07:52:15;;;;;;;7.63;4.27;;;10.50;99.90;;;-141.84;100.00;116556.59;4997647;28;20215;-55
2024/02/05 07:54:44;;;;;;;9.80;3.67;;;10.50;99.90;;;-141.84;100.00;115224.16;5008116;28;20233;-55
2024/02/05 07:57:14;;;;;;;10.73;4.10;;;10.60;99.90;;;-141.84;100.00;113892.16;5000079;28;20645;-55
2024/02/05 07:59:42;;;;;;;6.03;3.47;;;10.60;99.90;;;-141.84;100.00;115224.16;4999931;28;20309;-54
2024/02/05 08:02:10;;;;;;;10.20;4.23;;;10.60;99.90;;;-141.84;97.40;109898.81;4990084;28;20251;-50
2024/02/05 08:04:40;;;;;;;8.17;3.70;;;10.70;99.90;;;-141.84;96.99;109100.59;4998397;28;20716;-56
2024/02/05 08:07:09;;;;;;;10.67;4.30;;;10.70;99.90;;;-141.84;96.63;108036.56;4998397;28;20223;-52
2024/02/05 08:09:37;;;;;;;4.80;3.47;;;10.70;99.90;;;-141.84;95.29;105377.72;5001300;28;20606;-53
2024/02/05 08:12:07;;;;;;;7.83;3.70;;;10.80;99.90;;;-141.84;94.76;104314.66;4997400;28;20227;-54
2024/02/05 08:14:37;;;;;;;8.40;3.37;;;10.80;99.90;;;-141.84;94.76;104846.16;4999178;28;20739;-54
2024/02/05 08:17:05;;;;;;;9.60;3.63;;;10.80;99.90;;;-141.84;94.63;104314.66;5000452;28;20833;-53
2024/02/05 08:19:36;;;;;;;10.50;4.30;;;10.80;99.90;;;-141.84;93.34;101923.81;5001006;28;20179;-53
2024/02/05 08:22:05;;;;;;;8.60;3.30;;;10.90;99.90;;;-141.84;92.71;100065.22;4997425;28;20326;-54
2024/02/05 08:24:33;;;;;;;6.57;3.43;;;10.90;99.90;;;-141.84;91.87;98207.50;4997992;28;20559;-55
2024/02/05 08:27:01;;;;;;;9.00;3.80;;;11.00;99.90;;;-141.84;91.21;96881.06;4997508;28;20227;-53
2024/02/05 08:29:30;;;;;;;10.83;3.73;;;11.00;99.90;;;-141.84;89.45;91579.72;4990045;28;20235;-53
2024/02/05 08:31:59;;;;;;;9.27;3.80;;;11.10;99.90;;;-141.84;89.00;89990.66;4997700;28;20257;-56
2024/02/05 08:34:28;;;;;;;8.03;3.77;;;11.10;99.90;;;-141.84;88.15;87608.25;4998148;28;20203;-55
2024/02/05 08:36:57;;;;;;;7.07;3.80;;;11.20;99.90;;;-141.84;87.71;86020.75;4999864;28;20246;-56
2024/02/05 08:39:25;;;;;;;8.03;3.73;;;11.20;99.90;;;-141.84;86.43;81262.06;5000379;28;20222;-52
2024/02/05 08:41:53;;;;;;;8.10;3.20;;;11.20;99.90;;;-141.84;87.03;83376.34;4998675;28;20314;-52
2024/02/05 08:44:25;;;;;;;9.63;4.32;;;11.20;99.90;;;-141.84;86.30;80733.66;4997977;28;20225;-54
2024/02/05 08:46:53;;;;;;;11.40;3.93;;;11.10;99.90;;;-141.84;85.43;77300.78;5004747;28;20283;-55
2024/02/05 08:49:23;;;;;;;10.07;3.70;;;11.10;99.90;;;-141.84;85.72;77564.72;5000398;28;20235;-54
2024/02/05 08:51:52;;;;;;;8.93;3.60;;;11.10;99.90;;;-141.84;85.09;75981.22;4999924;28;20246;-55
2024/02/05 08:54:21;;;;;;;8.37;3.70;;;11.10;99.90;;;-141.84;84.65;73343.38;4992098;28;20226;-54
2024/02/05 08:56:49;;;;;;;6.67;3.73;;;11.20;99.90;;;-141.84;83.24;67809.63;4999541;28;20226;-53
2024/02/05 08:59:17;;;;;;;9.77;4.00;;;11.20;99.90;;;-141.84;83.01;64650.94;5000099;28;20314;-54
2024/02/05 09:01:45;;;;;;;9.00;3.77;;;11.20;99.90;;;-141.84;83.36;66229.97;5001069;28;20748;-57
2024/02/05 09:04:14;;;;;;;8.50;3.97;;;11.20;99.90;;;-141.84;82.93;64914.06;4991073;28;20219;-54
2024/02/05 09:06:44;;;;;;;7.80;3.50;;;11.20;99.90;;;-141.84;83.48;67019.72;5001265;28;20680;-54
2024/02/05 09:09:12;;;;;;;10.03;3.97;;;11.20;99.90;;;-141.84;81.88;58866.47;5005814;28;20222;-56
2024/02/05 09:11:40;;;;;;;8.33;3.00;;;11.20;99.90;;;-141.84;82.40;61757.66;5000979;28;20314;-53
2024/02/05 09:14:24;;;;;;;9.13;3.90;;;11.20;99.90;;;-141.84;81.32;54140.00;5001674;28;20227;-55
2024/02/05 09:16:52;;;;;;;7.03;3.60;;;11.20;99.90;;;-141.84;81.49;55714.84;5009079;28;20199;-53
2024/02/05 09:19:23;;;;;;;10.17;3.67;;;11.20;99.90;;;-141.84;79.98;47846.78;5005203;28;20456;-53
2024/02/05 09:21:54;;;;;;;10.63;3.93;;;11.20;99.90;;;-141.84;79.72;44442.13;5002074;28;20222;-54
2024/02/05 09:24:23;;;;;;;9.40;3.80;;;11.20;99.90;;;-141.84;79.95;45751.28;5000998;28;20594;-52
2024/02/05 09:26:52;;;;;;;9.83;3.30;;;11.20;99.90;;;-141.84;78.71;35276.13;5000950;28;20243;-53
2024/02/05 09:29:21;;;;;;;9.80;3.60;;;11.20;99.90;;;-141.84;78.65;35057.81;5002730;28;20729;-54
2024/02/05 09:31:50;;;;;;;10.60;4.20;;;11.30;99.90;;;-141.84;78.11;31228.00;5003217;28;20661;-54
2024/02/05 09:34:18;;;;;;;10.97;3.73;;;11.30;99.90;;;-141.84;78.23;31584.72;5003275;28;20754;-57
2024/02/05 09:36:47;;;;;;;9.13;3.20;;;11.30;99.90;;;-141.84;78.04;30946.72;5003043;28;20234;-54
2024/02/05 09:39:17;;;;;;;12.93;3.90;;;11.30;99.90;;;-141.84;77.48;28361.13;5003301;28;20320;-53
2024/02/05 09:41:47;;;;;;;13.53;4.10;;;11.30;99.90;;;-141.84;76.63;24580.59;5002702;28;20254;-54
2024/02/05 09:44:16;;;;;;;11.40;4.10;;;11.40;99.90;;;-141.84;75.81;22643.91;4999205;28;20302;-50
2024/02/05 09:46:50;;;;;;;8.97;3.43;;;11.40;99.90;;;-141.84;74.89;21076.13;5001290;28;20242;-54
2024/02/05 09:49:19;;;;;;;7.67;3.73;;;11.50;99.90;;;-141.84;74.86;20830.16;5002331;28;20246;-54
2024/02/05 09:51:49;;;;;;;10.03;3.77;;;11.50;99.90;;;-141.84;75.04;21029.38;5002910;28;20292;-49
2024/02/05 09:54:20;;;;;;;9.23;3.77;;;11.50;99.90;;;-141.84;75.29;21387.19;5002771;28;20258;-54
2024/02/05 09:56:51;;;;;;;12.87;3.80;;;11.50;99.90;;;-141.84;75.19;21265.22;4992552;28;20274;-54
2024/02/05 09:59:20;;;;;;;12.77;3.50;;;11.50;99.90;;;-141.84;73.53;19744.75;5000553;28;20223;-54
2024/02/05 10:01:49;;;;;;;10.13;3.83;;;11.50;99.90;;;-141.84;72.63;19391.13;5000833;28;20307;-58
2024/02/05 10:04:20;;;;;;;9.37;3.33;;;11.70;99.90;;;-141.84;72.24;19322.03;5002915;28;20202;-54
2024/02/05 10:06:53;;;;;;;15.13;3.40;;;11.70;99.90;;;-141.84;71.29;19110.72;5002520;28;20227;-55